createdAt,value
2023-03-26T00:00:43.754Z,8.9
2023-03-26T00:01:52.994Z,8.9
2023-03-26T00:03:02.086Z,8.9
2023-03-26T00:04:10.312Z,8.9
2023-03-26T00:05:19.450Z,8.9
2023-03-26T00:06:28.614Z,8.9
2023-03-26T00:07:37.775Z,8.9
2023-03-26T00:08:46.991Z,8.9
2023-03-26T00:09:56.128Z,8.9
2023-03-26T00:11:05.307Z,8.8
2023-03-26T00:12:14.496Z,8.9
2023-03-26T00:13:23.653Z,8.8
2023-03-26T00:15:41.995Z,8.9
2023-03-26T00:16:51.168Z,8.9
2023-03-26T00:18:00.347Z,8.8
2023-03-26T00:19:08.531Z,8.9
2023-03-26T00:20:17.742Z,8.8
2023-03-26T00:21:26.879Z,8.8
2023-03-26T00:22:36.054Z,8.8
2023-03-26T00:23:45.223Z,8.9
2023-03-26T00:24:54.396Z,8.8
2023-03-26T00:26:03.563Z,8.8
2023-03-26T00:27:12.741Z,8.9
2023-03-26T00:28:21.909Z,8.8
2023-03-26T00:29:31.144Z,8.8
2023-03-26T00:30:40.258Z,8.9
2023-03-26T00:31:49.497Z,8.9
2023-03-26T00:32:57.629Z,8.9
2023-03-26T00:34:05.900Z,8.9
2023-03-26T00:35:14.014Z,8.8
2023-03-26T00:36:22.232Z,8.8
2023-03-26T00:37:31.430Z,8.8
2023-03-26T00:38:40.646Z,8.8
2023-03-26T00:39:49.782Z,8.8
2023-03-26T00:40:59.047Z,8.8
2023-03-26T00:42:08.144Z,8.8
2023-03-26T00:43:17.225Z,8.8
2023-03-26T00:44:26.474Z,8.8
2023-03-26T00:45:35.576Z,8.8
2023-03-26T00:46:44.867Z,8.8
2023-03-26T00:47:53.915Z,8.7
2023-03-26T00:49:03.220Z,8.8
2023-03-26T00:50:12.310Z,8.7
2023-03-26T00:51:20.454Z,8.7
2023-03-26T00:52:29.737Z,8.7
2023-03-26T00:54:48.039Z,8.7
2023-03-26T00:55:57.145Z,8.7
2023-03-26T00:57:06.411Z,8.7
2023-03-26T00:58:15.494Z,8.7
2023-03-26T00:59:24.667Z,8.7
2023-03-26T01:00:32.857Z,8.7
2023-03-26T01:01:41.125Z,8.7
2023-03-26T01:02:50.239Z,8.6
2023-03-26T01:03:58.420Z,8.6
2023-03-26T01:05:06.651Z,8.7
2023-03-26T01:06:15.778Z,8.7
2023-03-26T01:07:24.942Z,8.6
2023-03-26T01:08:34.139Z,8.6
2023-03-26T01:09:43.365Z,8.6
2023-03-26T01:10:52.472Z,8.6
2023-03-26T01:12:01.634Z,8.6
2023-03-26T01:13:10.809Z,8.6
2023-03-26T01:14:19.972Z,8.6
2023-03-26T01:15:29.147Z,8.6
2023-03-26T01:16:38.336Z,8.7
2023-03-26T01:17:47.487Z,8.7
2023-03-26T01:18:56.727Z,8.6
2023-03-26T01:20:04.891Z,8.6
2023-03-26T01:21:14.160Z,8.6
2023-03-26T01:22:23.271Z,8.6
2023-03-26T01:23:32.433Z,8.6
2023-03-26T01:24:41.624Z,8.7
2023-03-26T01:25:50.722Z,8.7
2023-03-26T01:26:59.898Z,8.5
2023-03-26T01:28:08.107Z,8.5
2023-03-26T01:29:16.282Z,8.6
2023-03-26T01:30:24.481Z,8.6
2023-03-26T01:31:32.918Z,8.6
2023-03-26T01:32:41.832Z,8.6
2023-03-26T01:33:51.051Z,8.5
2023-03-26T01:35:00.186Z,8.6
2023-03-26T01:36:09.342Z,8.5
2023-03-26T01:37:18.519Z,8.5
2023-03-26T01:38:27.767Z,8.5
2023-03-26T01:40:46.044Z,8.5
2023-03-26T01:41:55.266Z,8.5
2023-03-26T01:43:04.376Z,8.5
2023-03-26T01:45:22.720Z,8.4
2023-03-26T01:46:30.933Z,8.4
2023-03-26T01:47:39.114Z,8.4
2023-03-26T01:48:48.284Z,8.5
2023-03-26T01:49:57.668Z,8.4
2023-03-26T01:51:06.705Z,8.4
2023-03-26T01:52:15.791Z,8.4
2023-03-26T01:53:24.970Z,8.5
2023-03-26T01:54:34.153Z,8.4
2023-03-26T01:55:43.321Z,8.4
2023-03-26T01:56:51.584Z,8.4
2023-03-26T01:58:00.676Z,8.5
2023-03-26T01:59:09.925Z,8.5
2023-03-26T02:00:18.054Z,8.5
2023-03-26T02:01:26.238Z,8.6
2023-03-26T02:02:35.403Z,8.5
2023-03-26T02:03:44.592Z,8.5
2023-03-26T02:04:53.761Z,8.5
2023-03-26T02:06:02.930Z,8.5
2023-03-26T02:07:12.113Z,8.5
2023-03-26T02:08:21.429Z,8.5
2023-03-26T02:09:30.450Z,8.5
2023-03-26T02:10:39.676Z,8.5
2023-03-26T02:11:48.795Z,8.5
2023-03-26T02:12:57.959Z,8.6
2023-03-26T02:14:07.144Z,8.5
2023-03-26T02:15:16.325Z,8.5
2023-03-26T02:16:24.496Z,8.5
2023-03-26T02:17:33.679Z,8.5
2023-03-26T02:18:42.872Z,8.4
2023-03-26T02:19:52.018Z,8.4
2023-03-26T02:21:01.188Z,8.4
2023-03-26T02:22:10.360Z,8.5
2023-03-26T02:23:19.542Z,8.5
2023-03-26T02:24:27.725Z,8.5
2023-03-26T02:25:35.911Z,8.4
2023-03-26T02:26:45.091Z,8.4
2023-03-26T02:27:54.262Z,8.5
2023-03-26T02:29:03.474Z,8.5
2023-03-26T02:30:12.604Z,8.5
2023-03-26T02:31:21.776Z,8.5
2023-03-26T02:32:31.052Z,8.6
2023-03-26T02:33:40.113Z,8.5
2023-03-26T02:34:49.302Z,8.6
2023-03-26T02:35:58.497Z,8.5
2023-03-26T02:37:07.650Z,8.6
2023-03-26T02:38:16.827Z,8.6
2023-03-26T02:39:25.990Z,8.6
2023-03-26T02:40:34.170Z,8.6
2023-03-26T02:41:43.341Z,8.6
2023-03-26T02:42:52.509Z,8.5
2023-03-26T02:44:01.694Z,8.5
2023-03-26T02:45:10.854Z,8.5
2023-03-26T02:46:20.032Z,8.6
2023-03-26T02:47:29.202Z,8.5
2023-03-26T02:48:37.425Z,8.5
2023-03-26T02:49:45.602Z,8.5
2023-03-26T02:50:54.773Z,8.5
2023-03-26T02:52:02.954Z,8.6
2023-03-26T02:53:11.150Z,8.5
2023-03-26T02:54:20.315Z,8.5
2023-03-26T02:55:29.488Z,8.5
2023-03-26T02:56:38.661Z,8.5
2023-03-26T02:57:47.842Z,8.5
2023-03-26T02:58:57.028Z,8.5
2023-03-26T03:00:06.186Z,8.5
2023-03-26T03:01:15.351Z,8.5
2023-03-26T03:02:24.623Z,8.5
2023-03-26T03:03:33.722Z,8.5
2023-03-26T03:04:42.897Z,8.5
2023-03-26T03:05:52.044Z,8.5
2023-03-26T03:07:01.220Z,8.4
2023-03-26T03:08:09.394Z,8.5
2023-03-26T03:09:18.579Z,8.5
2023-03-26T03:10:27.833Z,8.5
2023-03-26T03:11:36.920Z,8.5
2023-03-26T03:12:46.093Z,8.5
2023-03-26T03:13:55.291Z,8.5
2023-03-26T03:15:04.443Z,8.5
2023-03-26T03:16:12.657Z,8.5
2023-03-26T03:17:20.838Z,8.5
2023-03-26T03:18:29.029Z,8.5
2023-03-26T03:19:37.207Z,8.5
2023-03-26T03:20:46.389Z,8.4
2023-03-26T03:21:55.590Z,8.5
2023-03-26T03:23:04.731Z,8.5
2023-03-26T03:24:13.941Z,8.5
2023-03-26T03:25:23.129Z,8.5
2023-03-26T03:26:32.255Z,8.5
2023-03-26T03:27:41.419Z,8.5
2023-03-26T03:28:50.592Z,8.4
2023-03-26T03:29:59.770Z,8.5
2023-03-26T03:31:08.930Z,8.6
2023-03-26T03:32:18.103Z,8.5
2023-03-26T03:33:27.276Z,8.5
2023-03-26T03:34:35.478Z,8.5
2023-03-26T03:35:44.640Z,8.5
2023-03-26T03:36:53.808Z,8.5
2023-03-26T03:38:03.048Z,8.6
2023-03-26T03:39:12.178Z,8.6
2023-03-26T03:40:21.339Z,8.5
2023-03-26T03:41:30.513Z,8.6
2023-03-26T03:42:38.752Z,8.6
2023-03-26T03:43:46.891Z,8.6
2023-03-26T03:44:55.087Z,8.7
2023-03-26T03:46:03.291Z,8.7
2023-03-26T03:47:12.441Z,8.6
2023-03-26T03:48:21.615Z,8.7
2023-03-26T03:50:39.948Z,8.7
2023-03-26T03:51:49.130Z,8.6
2023-03-26T03:52:58.304Z,8.6
2023-03-26T03:54:07.479Z,8.6
2023-03-26T03:55:16.651Z,8.6
2023-03-26T03:56:25.817Z,8.7
2023-03-26T03:57:34.998Z,8.6
2023-03-26T03:58:44.157Z,8.6
2023-03-26T03:59:53.331Z,8.6
2023-03-26T04:01:01.523Z,8.6
2023-03-26T04:02:10.698Z,8.6
2023-03-26T04:03:19.872Z,8.7
2023-03-26T04:04:29.247Z,8.7
2023-03-26T04:05:38.215Z,8.6
2023-03-26T04:06:47.383Z,8.5
2023-03-26T04:07:56.579Z,8.6
2023-03-26T04:09:05.730Z,8.6
2023-03-26T04:10:13.949Z,8.6
2023-03-26T04:11:23.151Z,8.6
2023-03-26T04:12:31.298Z,8.6
2023-03-26T04:13:39.483Z,8.6
2023-03-26T04:14:48.659Z,8.6
2023-03-26T04:15:57.856Z,8.6
2023-03-26T04:17:06.991Z,8.6
2023-03-26T04:18:16.169Z,8.6
2023-03-26T04:19:25.347Z,8.6
2023-03-26T04:20:34.523Z,8.7
2023-03-26T04:21:43.685Z,8.6
2023-03-26T04:22:52.882Z,8.6
2023-03-26T04:24:02.044Z,8.7
2023-03-26T04:25:11.229Z,8.6
2023-03-26T04:26:20.391Z,8.6
2023-03-26T04:27:29.570Z,8.6
2023-03-26T04:28:37.737Z,8.6
2023-03-26T04:29:46.924Z,8.6
2023-03-26T04:30:56.082Z,8.7
2023-03-26T04:32:05.267Z,8.6
2023-03-26T04:33:14.435Z,8.6
2023-03-26T04:34:23.604Z,8.6
2023-03-26T04:35:32.870Z,8.6
2023-03-26T04:36:40.970Z,8.5
2023-03-26T04:37:49.183Z,8.6
2023-03-26T04:38:58.372Z,8.6
2023-03-26T04:40:07.504Z,8.5
2023-03-26T04:41:16.681Z,8.5
2023-03-26T04:42:25.858Z,8.5
2023-03-26T04:43:35.026Z,8.5
2023-03-26T04:44:44.183Z,8.6
2023-03-26T04:45:53.372Z,8.5
2023-03-26T04:47:02.556Z,8.5
2023-03-26T04:48:11.719Z,8.5
2023-03-26T04:49:20.877Z,8.5
2023-03-26T04:50:30.060Z,8.5
2023-03-26T04:51:39.254Z,8.5
2023-03-26T04:52:47.423Z,8.5
2023-03-26T04:53:56.598Z,8.5
2023-03-26T04:55:05.771Z,8.5
2023-03-26T04:56:14.936Z,8.5
2023-03-26T04:57:24.103Z,8.5
2023-03-26T04:58:33.537Z,8.5
2023-03-26T04:59:42.467Z,8.5
2023-03-26T05:00:51.692Z,8.5
2023-03-26T05:01:59.820Z,8.5
2023-03-26T05:03:08.030Z,8.5
2023-03-26T05:05:25.431Z,8.5
2023-03-26T05:06:33.596Z,8.5
2023-03-26T05:07:41.849Z,8.5
2023-03-26T05:08:49.974Z,8.4
2023-03-26T05:09:58.139Z,8.5
2023-03-26T05:11:07.314Z,8.5
2023-03-26T05:12:16.475Z,8.4
2023-03-26T05:13:25.654Z,8.4
2023-03-26T05:14:34.829Z,8.4
2023-03-26T05:15:44.014Z,8.6
2023-03-26T05:16:53.230Z,8.6
2023-03-26T05:18:02.358Z,8.5
2023-03-26T05:19:11.517Z,8.4
2023-03-26T05:20:20.709Z,8.4
2023-03-26T05:21:29.873Z,8.4
2023-03-26T05:22:39.033Z,8.4
2023-03-26T05:23:48.218Z,8.4
2023-03-26T05:24:56.397Z,8.4
2023-03-26T05:26:05.564Z,8.4
2023-03-26T05:27:14.748Z,8.5
2023-03-26T05:28:23.921Z,8.4
2023-03-26T05:29:33.098Z,8.4
2023-03-26T05:30:42.251Z,8.4
2023-03-26T05:31:51.444Z,8.4
2023-03-26T05:32:59.630Z,8.4
2023-03-26T05:34:07.826Z,8.4
2023-03-26T05:35:16.997Z,8.4
2023-03-26T05:36:26.170Z,8.4
2023-03-26T05:37:35.336Z,8.4
2023-03-26T05:38:43.531Z,8.4
2023-03-26T05:39:51.720Z,8.3
2023-03-26T05:41:00.900Z,8.3
2023-03-26T05:42:10.079Z,8.4
2023-03-26T05:43:19.239Z,8.4
2023-03-26T05:44:28.407Z,8.2
2023-03-26T05:45:37.631Z,8.3
2023-03-26T05:46:46.790Z,8.3
2023-03-26T05:47:54.963Z,8.2
2023-03-26T05:49:04.126Z,8.3
2023-03-26T05:50:13.296Z,8.2
2023-03-26T05:51:22.470Z,8.3
2023-03-26T05:52:31.635Z,8.3
2023-03-26T05:53:40.825Z,8.3
2023-03-26T05:54:50.001Z,8.3
2023-03-26T05:55:59.166Z,8.3
2023-03-26T05:57:08.325Z,8.3
2023-03-26T05:58:17.505Z,8.3
2023-03-26T05:59:26.685Z,8.3
2023-03-26T06:00:35.845Z,8.4
2023-03-26T06:01:45.024Z,8.5
2023-03-26T06:02:53.222Z,8.4
2023-03-26T06:04:01.397Z,8.4
2023-03-26T06:05:10.630Z,8.4
2023-03-26T06:06:18.811Z,8.2
2023-03-26T06:07:26.959Z,8.2
2023-03-26T06:08:36.128Z,8.3
2023-03-26T06:09:45.304Z,8.3
2023-03-26T06:10:54.644Z,8.4
2023-03-26T06:12:03.648Z,8.4
2023-03-26T06:13:12.832Z,8.4
2023-03-26T06:14:21.992Z,8.4
2023-03-26T06:15:31.175Z,8.4
2023-03-26T06:16:40.358Z,8.4
2023-03-26T06:17:49.538Z,8.4
2023-03-26T06:18:58.705Z,8.5
2023-03-26T06:20:07.861Z,8.4
2023-03-26T06:21:17.043Z,8.5
2023-03-26T06:22:25.261Z,8.5
2023-03-26T06:23:34.396Z,8.5
2023-03-26T06:24:43.569Z,8.5
2023-03-26T06:25:52.751Z,8.6
2023-03-26T06:27:01.915Z,8.6
2023-03-26T06:28:11.095Z,8.6
2023-03-26T06:29:20.253Z,8.7
2023-03-26T06:30:28.453Z,8.7
2023-03-26T06:31:36.646Z,8.7
2023-03-26T06:32:45.872Z,8.7
2023-03-26T06:33:54.987Z,8.8
2023-03-26T06:35:03.180Z,8.8
2023-03-26T06:36:11.361Z,8.8
2023-03-26T06:37:20.568Z,8.9
2023-03-26T06:38:29.705Z,9.1
2023-03-26T06:39:38.883Z,9.3
2023-03-26T06:40:48.061Z,9.2
2023-03-26T06:41:57.349Z,9.2
2023-03-26T06:43:06.431Z,9.3
2023-03-26T06:44:15.580Z,9.4
2023-03-26T06:45:24.747Z,9.5
2023-03-26T06:46:33.938Z,9.5
2023-03-26T06:47:43.097Z,9.4
2023-03-26T06:48:52.268Z,9.4
2023-03-26T06:50:01.445Z,9.4
2023-03-26T06:51:09.674Z,9.5
2023-03-26T06:52:18.798Z,9.6
2023-03-26T06:53:27.971Z,9.5
2023-03-26T06:54:37.150Z,9.3
2023-03-26T06:55:46.321Z,9.3
2023-03-26T06:56:55.536Z,9.2
2023-03-26T06:58:04.719Z,9.1
2023-03-26T06:59:12.853Z,9
2023-03-26T07:00:21.031Z,9
2023-03-26T07:01:29.243Z,9.1
2023-03-26T07:02:37.416Z,9
2023-03-26T07:03:46.709Z,9
2023-03-26T07:04:55.784Z,9.1
2023-03-26T07:06:05.182Z,9.1
2023-03-26T07:07:14.126Z,9.1
2023-03-26T07:08:23.291Z,9.2
2023-03-26T07:09:32.494Z,9.2
2023-03-26T07:10:41.644Z,9.2
2023-03-26T07:11:50.876Z,9.2
2023-03-26T07:13:00.032Z,9.2
2023-03-26T07:14:09.163Z,9.2
2023-03-26T07:15:18.343Z,9.3
2023-03-26T07:16:27.504Z,9.3
2023-03-26T07:17:35.771Z,9.2
2023-03-26T07:18:44.901Z,9.3
2023-03-26T07:19:54.031Z,9.2
2023-03-26T07:21:03.259Z,9.3
2023-03-26T07:22:12.377Z,9.3
2023-03-26T07:23:21.598Z,9.3
2023-03-26T07:24:30.718Z,9.4
2023-03-26T07:25:38.916Z,9.4
2023-03-26T07:26:47.148Z,9.3
2023-03-26T07:27:56.276Z,9.5
2023-03-26T07:29:04.475Z,9.7
2023-03-26T07:30:12.694Z,9.9
2023-03-26T07:31:21.833Z,9.9
2023-03-26T07:32:31.004Z,9.7
2023-03-26T07:33:40.237Z,9.6
2023-03-26T07:34:49.449Z,9.5
2023-03-26T07:35:58.535Z,9.5
2023-03-26T07:37:07.705Z,9.6
2023-03-26T07:38:16.908Z,9.6
2023-03-26T07:39:26.048Z,9.5
2023-03-26T07:40:35.257Z,9.6
2023-03-26T07:41:44.383Z,9.5
2023-03-26T07:42:53.565Z,9.6
2023-03-26T07:44:02.805Z,9.7
2023-03-26T07:45:10.913Z,9.8
2023-03-26T07:46:20.082Z,10
2023-03-26T07:47:29.332Z,10.1
2023-03-26T07:48:38.439Z,10.1
2023-03-26T07:49:47.665Z,10.2
2023-03-26T07:50:56.797Z,10.2
2023-03-26T07:52:05.987Z,10.2
2023-03-26T07:53:14.168Z,10
2023-03-26T07:54:22.406Z,10.1
2023-03-26T07:55:31.507Z,10.1
2023-03-26T07:56:40.683Z,10.2
2023-03-26T07:57:48.940Z,10.2
2023-03-26T07:58:57.063Z,10.2
2023-03-26T08:00:06.282Z,10.2
2023-03-26T08:01:15.394Z,10.3
2023-03-26T08:02:24.587Z,10.2
2023-03-26T08:03:33.785Z,10
2023-03-26T08:04:42.936Z,9.9
2023-03-26T08:05:52.150Z,10
2023-03-26T08:07:01.276Z,9.9
2023-03-26T08:08:10.436Z,9.9
2023-03-26T08:09:19.614Z,10
2023-03-26T08:10:28.791Z,10.1
2023-03-26T08:11:37.960Z,10.3
2023-03-26T08:12:47.142Z,10.5
2023-03-26T08:13:55.325Z,10.3
2023-03-26T08:15:04.483Z,10.3
2023-03-26T08:16:13.664Z,10.3
2023-03-26T08:17:22.871Z,10.2
2023-03-26T08:18:32.008Z,10.1
2023-03-26T08:19:41.173Z,10.1
2023-03-26T08:20:50.356Z,10.2
2023-03-26T08:21:58.543Z,10.2
2023-03-26T08:23:06.739Z,10.1
2023-03-26T08:24:14.926Z,10.1
2023-03-26T08:25:23.118Z,10
2023-03-26T08:26:32.289Z,10.1
2023-03-26T08:27:41.595Z,10.2
2023-03-26T08:28:50.662Z,10.2
2023-03-26T08:29:59.880Z,10.2
2023-03-26T08:31:09.033Z,10.1
2023-03-26T08:32:18.250Z,10.1
2023-03-26T08:33:27.421Z,10.1
2023-03-26T08:34:36.480Z,10.2
2023-03-26T08:35:45.799Z,10.3
2023-03-26T08:36:54.921Z,10.4
2023-03-26T08:38:04.119Z,10.4
2023-03-26T08:39:13.177Z,10.4
2023-03-26T08:40:21.380Z,10.5
2023-03-26T08:41:30.643Z,10.6
2023-03-26T08:42:39.719Z,10.7
2023-03-26T08:43:48.909Z,10.9
2023-03-26T08:44:58.083Z,10.9
2023-03-26T08:46:07.234Z,10.9
2023-03-26T08:47:16.478Z,10.9
2023-03-26T08:48:25.589Z,11
2023-03-26T08:49:34.750Z,11
2023-03-26T08:50:43.949Z,11.1
2023-03-26T08:51:52.122Z,11.1
2023-03-26T08:53:00.311Z,11.1
2023-03-26T08:54:09.483Z,10.9
2023-03-26T08:55:17.670Z,11.1
2023-03-26T08:56:25.996Z,11.3
2023-03-26T08:57:35.030Z,11.5
2023-03-26T08:58:44.206Z,11.2
2023-03-26T08:59:53.383Z,11
2023-03-26T09:01:02.557Z,11.2
2023-03-26T09:02:11.711Z,11.2
2023-03-26T09:03:21.010Z,11.1
2023-03-26T09:04:30.192Z,11
2023-03-26T09:05:39.251Z,11.3
2023-03-26T09:06:48.431Z,11.2
2023-03-26T09:07:57.586Z,11
2023-03-26T09:09:06.761Z,10.9
2023-03-26T09:10:15.919Z,10.8
2023-03-26T09:11:24.221Z,10.9
2023-03-26T09:12:33.531Z,11
2023-03-26T09:13:42.482Z,10.9
2023-03-26T09:14:51.663Z,10.9
2023-03-26T09:16:00.882Z,10.9
2023-03-26T09:17:10.002Z,10.7
2023-03-26T09:18:19.194Z,10.5
2023-03-26T09:19:27.356Z,10.6
2023-03-26T09:20:35.562Z,10.8
2023-03-26T09:21:44.776Z,10.7
2023-03-26T09:22:52.994Z,10.7
2023-03-26T09:24:01.093Z,10.8
2023-03-26T09:25:10.267Z,10.7
2023-03-26T09:26:19.578Z,10.5
2023-03-26T09:27:28.623Z,10.5
2023-03-26T09:28:37.791Z,10.5
2023-03-26T09:29:46.953Z,10.6
2023-03-26T09:30:56.132Z,10.6
2023-03-26T09:32:05.306Z,10.6
2023-03-26T09:33:14.509Z,10.3
2023-03-26T09:34:23.660Z,10.2
2023-03-26T09:35:32.815Z,10.2
2023-03-26T09:36:41.974Z,10.2
2023-03-26T09:37:51.171Z,10.2
2023-03-26T09:39:00.342Z,10.3
2023-03-26T09:40:08.529Z,10.3
2023-03-26T09:41:17.692Z,10.2
2023-03-26T09:42:26.889Z,10.2
2023-03-26T09:43:36.052Z,10.2
2023-03-26T09:44:45.292Z,10.2
2023-03-26T09:45:54.399Z,10.3
2023-03-26T09:47:02.589Z,10.3
2023-03-26T09:48:10.774Z,10.4
2023-03-26T09:49:19.935Z,10.4
2023-03-26T09:50:29.114Z,10.4
2023-03-26T09:51:37.304Z,10.4
2023-03-26T09:52:45.556Z,10.5
2023-03-26T09:53:54.752Z,10.4
2023-03-26T09:55:03.840Z,10.3
2023-03-26T09:56:13.019Z,10.2
2023-03-26T09:57:22.176Z,10.2
2023-03-26T09:58:31.359Z,10.2
2023-03-26T09:59:40.542Z,10.2
2023-03-26T10:00:49.700Z,10.2
2023-03-26T10:01:58.881Z,10.1
2023-03-26T10:03:08.050Z,10.1
2023-03-26T10:04:17.225Z,10
2023-03-26T10:05:26.399Z,10
2023-03-26T10:06:35.584Z,10.1
2023-03-26T10:07:43.758Z,10.1
2023-03-26T10:08:52.932Z,10
2023-03-26T10:10:02.093Z,10
2023-03-26T10:11:11.267Z,10.1
2023-03-26T10:12:20.441Z,10.1
2023-03-26T10:13:29.615Z,10
2023-03-26T10:14:38.786Z,9.9
2023-03-26T10:15:47.045Z,10
2023-03-26T10:16:55.162Z,9.9
2023-03-26T10:18:04.338Z,10
2023-03-26T10:19:13.543Z,10
2023-03-26T10:20:22.747Z,9.9
2023-03-26T10:21:31.949Z,9.9
2023-03-26T10:22:41.038Z,10
2023-03-26T10:23:50.216Z,10.1
2023-03-26T10:24:59.382Z,10
2023-03-26T10:26:08.603Z,9.9
2023-03-26T10:27:17.730Z,9.9
2023-03-26T10:28:26.894Z,9.9
2023-03-26T10:29:36.073Z,10
2023-03-26T10:30:45.249Z,10.1
2023-03-26T10:31:53.442Z,10
2023-03-26T10:33:02.598Z,9.9
2023-03-26T10:34:11.800Z,9.8
2023-03-26T10:35:20.962Z,9.8
2023-03-26T10:36:30.136Z,9.8
2023-03-26T10:37:39.356Z,9.7
2023-03-26T10:38:48.471Z,9.7
2023-03-26T10:39:56.654Z,9.6
2023-03-26T10:41:04.849Z,9.6
2023-03-26T10:42:13.061Z,9.7
2023-03-26T10:43:21.258Z,9.8
2023-03-26T10:44:30.397Z,9.8
2023-03-26T10:45:39.570Z,9.9
2023-03-26T10:46:48.737Z,9.9
2023-03-26T10:47:57.910Z,9.8
2023-03-26T10:49:07.081Z,9.9
2023-03-26T10:50:16.263Z,9.9
2023-03-26T10:51:25.438Z,9.9
2023-03-26T10:52:34.603Z,9.8
2023-03-26T10:53:43.782Z,9.7
2023-03-26T10:54:52.967Z,9.7
2023-03-26T10:56:02.120Z,9.7
2023-03-26T10:57:11.292Z,9.6
2023-03-26T10:58:19.485Z,9.7
2023-03-26T10:59:28.662Z,9.7
2023-03-26T11:00:37.835Z,9.7
2023-03-26T11:01:46.999Z,9.8
2023-03-26T11:02:56.177Z,9.6
2023-03-26T11:04:05.344Z,9.7
2023-03-26T11:05:14.517Z,9.7
2023-03-26T11:06:22.702Z,9.6
2023-03-26T11:07:30.905Z,9.7
2023-03-26T11:08:40.082Z,9.8
2023-03-26T11:09:48.284Z,9.9
2023-03-26T11:10:56.457Z,9.9
2023-03-26T11:12:05.643Z,9.8
2023-03-26T11:13:14.805Z,9.8
2023-03-26T11:14:23.977Z,10
2023-03-26T11:15:33.232Z,10.1
2023-03-26T11:16:42.328Z,10.2
2023-03-26T11:17:51.492Z,10.1
2023-03-26T11:19:00.665Z,9.9
2023-03-26T11:20:09.827Z,10
2023-03-26T11:21:19.044Z,10
2023-03-26T11:22:28.187Z,10.1
2023-03-26T11:23:37.505Z,10.1
2023-03-26T11:24:46.598Z,10.1
2023-03-26T11:25:55.765Z,10
2023-03-26T11:27:03.929Z,9.9
2023-03-26T11:28:13.158Z,9.9
2023-03-26T11:29:22.260Z,9.8
2023-03-26T11:30:31.505Z,9.8
2023-03-26T11:31:40.592Z,9.9
2023-03-26T11:32:49.774Z,10.1
2023-03-26T11:33:58.183Z,10.1
2023-03-26T11:35:06.139Z,10.1
2023-03-26T11:36:14.333Z,10.2
2023-03-26T11:37:22.516Z,10.2
2023-03-26T11:38:31.705Z,10.2
2023-03-26T11:39:40.852Z,10.2
2023-03-26T11:40:50.150Z,10.3
2023-03-26T11:41:59.260Z,10.2
2023-03-26T11:43:08.382Z,10.4
2023-03-26T11:44:17.548Z,10.3
2023-03-26T11:45:26.720Z,10.3
2023-03-26T11:46:36.026Z,10.2
2023-03-26T11:47:45.083Z,10.1
2023-03-26T11:48:54.306Z,10.1
2023-03-26T11:51:12.609Z,10
2023-03-26T11:52:20.780Z,10.1
2023-03-26T11:53:29.959Z,10.1
2023-03-26T11:54:39.123Z,10.1
2023-03-26T11:55:48.292Z,10.1
2023-03-26T11:56:57.482Z,10
2023-03-26T11:58:06.646Z,9.9
2023-03-26T11:59:15.812Z,9.8
2023-03-26T12:00:25.082Z,9.7
2023-03-26T12:01:33.182Z,9.6
2023-03-26T12:02:41.366Z,9.6
2023-03-26T12:03:50.539Z,9.5
2023-03-26T12:04:59.710Z,9.5
2023-03-26T12:06:07.915Z,9.5
2023-03-26T12:07:16.095Z,9.4
2023-03-26T12:08:25.257Z,9.4
2023-03-26T12:09:34.432Z,9.4
2023-03-26T12:10:43.663Z,9.2
2023-03-26T12:11:52.792Z,9.2
2023-03-26T12:13:01.960Z,9.1
2023-03-26T12:14:11.122Z,9.1
2023-03-26T12:15:20.347Z,9.1
2023-03-26T12:16:29.471Z,9.1
2023-03-26T12:17:38.643Z,9.1
2023-03-26T12:18:47.809Z,9.1
2023-03-26T12:19:56.997Z,9.1
2023-03-26T12:21:06.207Z,9.1
2023-03-26T12:23:23.522Z,9.1
2023-03-26T12:24:32.693Z,9
2023-03-26T12:25:41.879Z,8.9
2023-03-26T12:26:51.066Z,9
2023-03-26T12:28:00.234Z,8.9
2023-03-26T12:29:09.391Z,8.8
2023-03-26T12:30:18.563Z,8.9
2023-03-26T12:31:26.754Z,8.8
2023-03-26T12:32:34.943Z,8.9
2023-03-26T12:33:43.127Z,9
2023-03-26T12:34:51.381Z,9
2023-03-26T12:36:00.484Z,8.9
2023-03-26T12:37:09.768Z,8.9
2023-03-26T12:38:18.857Z,9
2023-03-26T12:39:28.037Z,9
2023-03-26T12:40:37.350Z,9.1
2023-03-26T12:41:46.379Z,9.1
2023-03-26T12:42:55.811Z,9.1
2023-03-26T12:44:42.501Z,9
2023-03-26T12:45:13.955Z,8.9
2023-03-26T12:46:23.076Z,8.9
2023-03-26T12:47:32.274Z,8.8
2023-03-26T12:48:41.416Z,8.8
2023-03-26T12:49:49.599Z,8.8
2023-03-26T12:50:58.895Z,8.9
2023-03-26T12:53:17.131Z,8.9
2023-03-26T12:54:26.295Z,8.9
2023-03-26T12:55:35.466Z,8.7
2023-03-26T12:56:44.679Z,8.7
2023-03-26T12:57:53.904Z,8.9
2023-03-26T12:59:02.980Z,8.8
2023-03-26T13:00:12.231Z,8.9
2023-03-26T13:01:21.329Z,8.7
2023-03-26T13:02:30.681Z,8.5
2023-03-26T13:03:39.678Z,8.6
2023-03-26T13:04:47.859Z,8.5
2023-03-26T13:05:57.066Z,8.5
2023-03-26T13:07:06.238Z,8.5
2023-03-26T13:08:15.515Z,8.7
2023-03-26T13:09:24.553Z,8.6
2023-03-26T13:10:33.748Z,8.6
2023-03-26T13:11:42.908Z,8.6
2023-03-26T13:12:52.125Z,8.5
2023-03-26T13:14:00.283Z,8.6
2023-03-26T13:15:08.453Z,8.5
2023-03-26T13:16:17.706Z,8.3
2023-03-26T13:17:26.834Z,8.4
2023-03-26T13:18:35.972Z,8.5
2023-03-26T13:19:45.134Z,8.4
2023-03-26T13:20:54.447Z,8.4
2023-03-26T13:22:03.497Z,8.5
2023-03-26T13:23:12.663Z,8.6
2023-03-26T13:24:21.840Z,8.5
2023-03-26T13:25:30.993Z,8.5
2023-03-26T13:26:40.179Z,8.4
2023-03-26T13:27:49.345Z,8.5
2023-03-26T13:28:58.587Z,8.5
2023-03-26T13:30:06.721Z,8.5
2023-03-26T13:31:14.912Z,8.6
2023-03-26T13:32:24.255Z,8.6
2023-03-26T13:33:33.245Z,8.6
2023-03-26T13:34:42.431Z,8.4
2023-03-26T13:35:51.606Z,8.4
2023-03-26T13:37:00.834Z,8.4
2023-03-26T13:38:09.181Z,8.3
2023-03-26T13:39:17.161Z,8.4
2023-03-26T13:40:25.356Z,8.4
2023-03-26T13:41:33.531Z,8.4
2023-03-26T13:42:42.711Z,8.4
2023-03-26T13:43:51.888Z,8.4
2023-03-26T13:45:01.051Z,8.5
2023-03-26T13:46:10.234Z,8.4
2023-03-26T13:47:19.386Z,8.3
2023-03-26T13:48:28.574Z,8.2
2023-03-26T13:49:37.743Z,8.2
2023-03-26T13:50:46.948Z,8.3
2023-03-26T13:51:56.092Z,8.3
2023-03-26T13:53:05.263Z,8.2
2023-03-26T13:55:23.610Z,8.2
2023-03-26T13:56:31.791Z,8.1
2023-03-26T13:57:40.958Z,8.2
2023-03-26T13:58:50.135Z,8.2
2023-03-26T13:59:59.311Z,8.1
2023-03-26T14:01:08.566Z,8.1
2023-03-26T14:02:17.649Z,8.2
2023-03-26T14:03:26.833Z,8.2
2023-03-26T14:04:35.996Z,8.3
2023-03-26T14:05:44.201Z,8.3
2023-03-26T14:06:52.384Z,8.2
2023-03-26T14:08:00.575Z,8.2
2023-03-26T14:09:08.768Z,8.2
2023-03-26T14:10:17.944Z,8.2
2023-03-26T14:11:27.117Z,8.2
2023-03-26T14:12:36.285Z,8.2
2023-03-26T14:13:45.451Z,8.4
2023-03-26T14:14:54.676Z,8.3
2023-03-26T14:16:03.808Z,8.3
2023-03-26T14:17:12.986Z,8.3
2023-03-26T14:18:22.147Z,8.3
2023-03-26T14:19:31.318Z,8.4
2023-03-26T14:20:40.498Z,8.3
2023-03-26T14:21:49.658Z,8.3
2023-03-26T14:22:58.838Z,8.3
2023-03-26T14:24:07.039Z,8.3
2023-03-26T14:25:16.291Z,8.3
2023-03-26T14:26:25.392Z,8.2
2023-03-26T14:27:34.531Z,8.3
2023-03-26T14:28:43.715Z,8.4
2023-03-26T14:29:52.891Z,8.4
2023-03-26T14:31:02.052Z,8.3
2023-03-26T14:32:10.269Z,8.4
2023-03-26T14:33:18.448Z,8.4
2023-03-26T14:34:27.616Z,8.4
2023-03-26T14:35:36.801Z,8.2
2023-03-26T14:36:44.987Z,8.3
2023-03-26T14:37:53.212Z,8.4
2023-03-26T14:39:02.358Z,8.4
2023-03-26T14:40:11.528Z,8.3
2023-03-26T14:41:20.699Z,8.3
2023-03-26T14:42:29.868Z,8.4
2023-03-26T14:43:39.042Z,8.5
2023-03-26T14:44:48.194Z,8.4
2023-03-26T14:45:57.377Z,8.2
2023-03-26T14:47:06.562Z,8.2
2023-03-26T14:48:15.728Z,8.3
2023-03-26T14:49:24.899Z,8.3
2023-03-26T14:50:34.084Z,8.2
2023-03-26T14:51:43.252Z,8.1
2023-03-26T14:52:51.456Z,8.2
2023-03-26T14:54:00.600Z,8.1
2023-03-26T14:55:09.798Z,8.2
2023-03-26T14:56:18.949Z,8.1
2023-03-26T14:57:28.137Z,8.2
2023-03-26T14:58:37.297Z,8.2
2023-03-26T14:59:46.475Z,8.1
2023-03-26T15:00:55.646Z,8.1
2023-03-26T15:02:04.816Z,8.2
2023-03-26T15:03:13.980Z,8.1
2023-03-26T15:04:23.170Z,8
2023-03-26T15:05:32.360Z,8.2
2023-03-26T15:06:41.509Z,8.2
2023-03-26T15:07:49.708Z,8.1
2023-03-26T15:08:57.880Z,8.1
2023-03-26T15:10:07.059Z,8.1
2023-03-26T15:11:16.258Z,8.1
2023-03-26T15:12:25.410Z,8.1
2023-03-26T15:13:34.570Z,8.1
2023-03-26T15:14:43.753Z,8.1
2023-03-26T15:15:52.925Z,8.1
2023-03-26T15:17:02.136Z,8.2
2023-03-26T15:18:11.294Z,8.1
2023-03-26T15:19:20.471Z,8.1
2023-03-26T15:20:29.614Z,8.1
2023-03-26T15:21:38.793Z,8.1
2023-03-26T15:22:48.062Z,8.2
2023-03-26T15:23:56.139Z,8.2
2023-03-26T15:25:05.312Z,8.2
2023-03-26T15:26:14.489Z,8.1
2023-03-26T15:27:23.703Z,8.1
2023-03-26T15:28:31.851Z,8.1
2023-03-26T15:29:40.068Z,8.1
2023-03-26T15:30:49.229Z,8.2
2023-03-26T15:31:58.399Z,8.2
2023-03-26T15:33:07.618Z,8.3
2023-03-26T15:34:16.730Z,8.3
2023-03-26T15:35:25.994Z,8.2
2023-03-26T15:36:35.127Z,8.4
2023-03-26T15:37:44.319Z,8.3
2023-03-26T15:38:53.526Z,8.2
2023-03-26T15:40:02.593Z,8.2
2023-03-26T15:41:11.774Z,8.2
2023-03-26T15:42:21.123Z,8.3
2023-03-26T15:43:30.124Z,8.3
2023-03-26T15:44:38.299Z,8.2
2023-03-26T15:45:47.461Z,8.2
2023-03-26T15:46:56.647Z,8.2
2023-03-26T15:48:05.833Z,8.2
2023-03-26T15:49:14.996Z,8.3
2023-03-26T15:50:24.168Z,8.3
2023-03-26T15:51:33.345Z,8.2
2023-03-26T15:52:42.531Z,8.2
2023-03-26T15:53:51.687Z,8.3
2023-03-26T15:55:00.853Z,8.2
2023-03-26T15:56:10.020Z,8.3
2023-03-26T15:57:19.195Z,8.2
2023-03-26T15:58:28.365Z,8.2